createdAt,value
2023-01-10T00:02:44.497Z,5.40
2023-01-10T00:07:46.705Z,2.78
2023-01-10T00:13:07.330Z,3.63
2023-01-10T00:18:09.471Z,3.38
2023-01-10T00:23:11.200Z,3.30
2023-01-10T00:28:15.581Z,3.10
2023-01-10T00:33:19.749Z,2.85
2023-01-10T00:38:21.287Z,4.13
2023-01-10T00:43:41.655Z,3.47
2023-01-10T00:48:45.397Z,3.08
2023-01-10T00:53:46.946Z,4.93
2023-01-10T00:58:48.443Z,3.28
2023-01-10T01:03:49.943Z,5.68
2023-01-10T01:08:51.696Z,5.82
2023-01-10T01:13:53.231Z,5.68
2023-01-10T01:18:54.744Z,3.25
2023-01-10T01:23:59.189Z,4.10
2023-01-10T01:29:00.804Z,3.13
2023-01-10T01:34:02.339Z,2.20
2023-01-10T01:39:04.384Z,1.58
2023-01-10T01:44:12.984Z,2.35
2023-01-10T01:49:20.020Z,1.77
2023-01-10T01:54:21.610Z,1.95
2023-01-10T01:59:33.553Z,2.10
2023-01-10T02:04:57.670Z,3.00
2023-01-10T02:10:11.097Z,1.50
2023-01-10T02:15:15.242Z,1.63
2023-01-10T02:20:19.376Z,2.00
2023-01-10T02:25:32.656Z,1.17
2023-01-10T02:30:59.889Z,2.17
2023-01-10T02:36:16.615Z,3.70
2023-01-10T02:41:47.521Z,4.05
2023-01-10T02:46:49.865Z,3.83
2023-01-10T02:51:51.543Z,6.38
2023-01-10T02:57:17.846Z,8.45
2023-01-10T03:02:28.651Z,3.58
2023-01-10T03:07:53.211Z,6.38
2023-01-10T03:13:00.945Z,8.65
2023-01-10T03:18:06.914Z,9.48
2023-01-10T03:23:10.477Z,4.10
2023-01-10T03:28:15.495Z,4.15
2023-01-10T03:33:22.344Z,4.78
2023-01-10T03:38:32.643Z,4.60
2023-01-10T03:44:07.313Z,8.18
2023-01-10T03:49:10.986Z,9.60
2023-01-10T03:54:16.625Z,13.45
2023-01-10T03:59:23.313Z,13.27
2023-01-10T04:04:25.032Z,11.52
2023-01-10T04:09:26.746Z,11.85
2023-01-10T04:14:28.767Z,14.07
2023-01-10T04:19:30.360Z,8.70
2023-01-10T04:24:32.367Z,11.95
2023-01-10T04:29:33.872Z,8.95
2023-01-10T04:34:35.391Z,9.23
2023-01-10T04:39:36.896Z,8.77
2023-01-10T04:44:38.394Z,8.95
2023-01-10T04:49:39.941Z,8.40
2023-01-10T04:54:41.481Z,10.10
2023-01-10T04:59:45.179Z,10.38
2023-01-10T05:04:46.675Z,10.35
2023-01-10T05:09:48.164Z,8.80
2023-01-10T05:14:49.732Z,12.65
2023-01-10T05:19:51.281Z,10.88
2023-01-10T05:24:54.605Z,13.25
2023-01-10T05:29:56.247Z,10.80
2023-01-10T05:34:57.759Z,11.05
2023-01-10T05:39:59.327Z,9.98
2023-01-10T05:45:00.888Z,9.52
2023-01-10T05:50:02.461Z,10.05
2023-01-10T05:55:04.356Z,12.15
2023-01-10T06:00:06.701Z,12.10
2023-01-10T06:05:13.018Z,14.68
2023-01-10T06:10:14.861Z,15.25
2023-01-10T06:15:17.356Z,11.45
2023-01-10T06:20:18.987Z,10.55
2023-01-10T06:25:20.670Z,9.60
2023-01-10T06:30:22.319Z,12.10
2023-01-10T06:35:23.868Z,13.63
2023-01-10T06:40:26.599Z,11.23
2023-01-10T06:45:28.208Z,12.75
2023-01-10T06:50:29.770Z,12.40
2023-01-10T06:55:31.814Z,7.97
2023-01-10T07:00:33.643Z,11.38
2023-01-10T07:05:35.268Z,17.67
2023-01-10T07:10:36.864Z,17.83
2023-01-10T07:15:38.399Z,10.98
2023-01-10T07:20:40.058Z,9.27
2023-01-10T07:25:41.595Z,10.95
2023-01-10T07:30:43.127Z,11.93
2023-01-10T07:35:44.646Z,11.50
2023-01-10T07:40:46.223Z,9.43
2023-01-10T07:45:47.941Z,11.55
2023-01-10T07:50:49.487Z,11.48
2023-01-10T07:55:51.291Z,15.77
2023-01-10T08:00:57.556Z,13.77
2023-01-10T08:06:06.063Z,9.98
2023-01-10T08:11:07.788Z,8.07
2023-01-10T08:16:09.629Z,7.20
2023-01-10T08:21:11.234Z,13.95
2023-01-10T08:26:12.781Z,9.43
2023-01-10T08:31:14.697Z,9.35
2023-01-10T08:36:18.780Z,9.23
2023-01-10T08:41:20.393Z,10.00
2023-01-10T08:46:22.139Z,10.38
2023-01-10T08:51:24.068Z,9.73
2023-01-10T08:56:25.743Z,9.43
2023-01-10T09:01:27.523Z,8.30
2023-01-10T09:06:29.192Z,9.43
2023-01-10T09:11:30.709Z,8.07
2023-01-10T09:16:32.243Z,5.53
2023-01-10T09:21:33.782Z,9.27
2023-01-10T09:26:35.308Z,9.23
2023-01-10T09:31:36.847Z,8.27
2023-01-10T09:36:38.425Z,5.85
2023-01-10T09:41:50.072Z,6.45
2023-01-10T09:47:08.419Z,6.45
2023-01-10T09:52:32.604Z,7.70
2023-01-10T09:57:35.081Z,6.00
2023-01-10T10:02:42.923Z,5.78
2023-01-10T10:07:45.711Z,6.90
2023-01-10T10:12:50.047Z,5.93
2023-01-10T10:17:57.607Z,7.65
2023-01-10T10:23:26.738Z,9.60
2023-01-10T10:28:55.643Z,7.57
2023-01-10T10:34:03.273Z,5.47
2023-01-10T10:39:06.995Z,5.15
2023-01-10T10:44:26.894Z,6.75
2023-01-10T10:54:39.234Z,8.13
2023-01-10T10:59:46.405Z,8.82
2023-01-10T11:04:53.023Z,6.32
2023-01-10T11:09:54.736Z,5.90
2023-01-10T11:14:56.477Z,5.53
2023-01-10T11:19:59.643Z,7.82
2023-01-10T11:25:03.019Z,5.82
2023-01-10T11:30:09.310Z,5.53
2023-01-10T11:35:21.921Z,7.25
2023-01-10T11:40:26.099Z,6.50
2023-01-10T11:45:33.439Z,10.68
2023-01-10T11:50:38.268Z,6.60
2023-01-10T11:55:39.860Z,7.10
2023-01-10T12:00:46.943Z,6.93
2023-01-10T12:06:01.502Z,9.88
2023-01-10T12:11:07.919Z,9.45
2023-01-10T12:16:22.369Z,8.30
2023-01-10T12:21:34.591Z,7.65
2023-01-10T12:26:38.888Z,5.70
2023-01-10T12:31:41.141Z,9.82
2023-01-10T12:36:49.391Z,9.00
2023-01-10T12:42:21.149Z,10.63
2023-01-10T12:47:34.676Z,11.05
2023-01-10T12:52:52.663Z,5.85
2023-01-10T12:57:59.621Z,8.27
2023-01-10T13:03:09.209Z,9.68
2023-01-10T13:08:14.223Z,9.20
2023-01-10T13:13:19.985Z,7.00
2023-01-10T13:18:27.445Z,8.70
2023-01-10T13:23:33.337Z,9.82
2023-01-10T13:28:38.431Z,6.15
2023-01-10T13:33:46.079Z,7.93
2023-01-10T13:38:51.353Z,9.30
2023-01-10T13:44:01.743Z,7.28
2023-01-10T13:49:03.555Z,7.95
2023-01-10T13:54:25.364Z,7.95
2023-01-10T13:59:45.658Z,6.80
2023-01-10T14:04:52.846Z,7.13
2023-01-10T14:10:03.832Z,9.30
2023-01-10T14:15:24.539Z,5.32
2023-01-10T14:25:29.189Z,10.90
2023-01-10T14:30:33.994Z,12.27
2023-01-10T14:35:44.312Z,7.07
2023-01-10T14:40:49.994Z,7.85
2023-01-10T14:46:04.103Z,10.48
2023-01-10T14:51:09.451Z,7.45
2023-01-10T14:56:41.457Z,5.95
2023-01-10T15:01:43.350Z,6.13
2023-01-10T15:07:25.351Z,4.90
2023-01-10T15:12:29.176Z,3.45
2023-01-10T15:17:31.623Z,3.67
2023-01-10T15:22:35.671Z,4.32
2023-01-10T15:27:45.286Z,5.40
2023-01-10T15:32:50.460Z,4.47
2023-01-10T15:37:57.361Z,5.05
2023-01-10T15:43:16.920Z,4.90
2023-01-10T15:48:24.552Z,7.03
2023-01-10T15:54:04.791Z,8.60
2023-01-10T15:59:23.428Z,4.75
2023-01-10T16:04:25.035Z,7.25
2023-01-10T16:09:26.678Z,6.68
2023-01-10T16:14:28.197Z,7.05
2023-01-10T16:19:29.778Z,7.07
2023-01-10T16:24:34.189Z,7.65
2023-01-10T16:29:35.828Z,7.75
2023-01-10T16:34:37.396Z,7.57
2023-01-10T16:39:39.070Z,10.43
2023-01-10T16:44:41.648Z,9.55
2023-01-10T16:49:43.379Z,12.70
2023-01-10T16:54:44.972Z,11.00
2023-01-10T16:59:46.574Z,12.52
2023-01-10T17:04:48.195Z,10.95
2023-01-10T17:09:49.874Z,7.57
2023-01-10T17:14:52.636Z,6.20
2023-01-10T17:19:54.193Z,5.32
2023-01-10T17:24:55.736Z,7.32
2023-01-10T17:29:57.274Z,7.45
2023-01-10T17:34:58.782Z,3.92
2023-01-10T17:40:00.319Z,7.32
2023-01-10T17:45:01.859Z,8.32
2023-01-10T17:50:04.016Z,5.07
2023-01-10T17:55:07.510Z,9.85
2023-01-10T18:00:10.188Z,7.13
2023-01-10T18:05:11.752Z,9.60
2023-01-10T18:10:13.337Z,5.15
2023-01-10T18:15:14.862Z,8.70
2023-01-10T18:20:16.748Z,4.60
2023-01-10T18:25:19.360Z,7.72
2023-01-10T18:30:24.267Z,6.97
2023-01-10T18:35:26.847Z,4.65
2023-01-10T18:40:30.983Z,6.60
2023-01-10T18:45:32.663Z,6.22
2023-01-10T18:50:34.197Z,4.85
2023-01-10T18:55:35.770Z,6.50
2023-01-10T19:00:37.343Z,6.32
2023-01-10T19:05:38.913Z,4.82
2023-01-10T19:11:07.078Z,5.72
2023-01-10T19:16:17.878Z,6.00
2023-01-10T19:21:19.898Z,9.60
2023-01-10T19:26:21.710Z,7.45
2023-01-10T19:31:26.541Z,9.25
2023-01-10T19:36:28.990Z,7.60
2023-01-10T19:41:30.785Z,6.85
2023-01-10T19:46:34.070Z,7.40
2023-01-10T19:51:36.964Z,12.57
2023-01-10T19:56:38.619Z,5.10
2023-01-10T20:01:40.773Z,8.35
2023-01-10T20:06:42.773Z,6.47
2023-01-10T20:11:46.198Z,5.45
2023-01-10T20:16:48.892Z,5.47
2023-01-10T20:21:50.540Z,7.57
2023-01-10T20:26:52.096Z,4.82
2023-01-10T20:31:55.922Z,4.63
2023-01-10T20:36:57.618Z,6.22
2023-01-10T20:41:59.457Z,4.32
2023-01-10T20:47:01.057Z,3.10
2023-01-10T20:52:02.570Z,4.35
2023-01-10T20:57:04.168Z,7.60
2023-01-10T21:02:05.719Z,4.82
2023-01-10T21:07:07.426Z,5.03
2023-01-10T21:12:22.022Z,5.32
2023-01-10T21:17:24.622Z,2.88
2023-01-10T21:22:28.053Z,3.75
2023-01-10T21:27:31.306Z,4.82
2023-01-10T21:32:33.151Z,3.83
2023-01-10T21:37:34.668Z,2.72
2023-01-10T21:42:42.645Z,3.35
2023-01-10T21:47:44.278Z,4.20
2023-01-10T21:52:45.821Z,4.40
2023-01-10T21:57:47.341Z,3.92
2023-01-10T22:02:48.906Z,4.25
2023-01-10T22:07:50.420Z,3.33
2023-01-10T22:12:52.007Z,5.53
2023-01-10T22:17:53.618Z,4.32
2023-01-10T22:22:55.333Z,4.15
2023-01-10T22:27:56.875Z,4.85
2023-01-10T22:32:58.396Z,2.70
2023-01-10T22:37:59.920Z,6.32
2023-01-10T22:43:01.530Z,3.38
2023-01-10T22:48:03.135Z,2.15
2023-01-10T22:53:04.663Z,3.38
2023-01-10T22:58:06.179Z,2.88
2023-01-10T23:03:07.817Z,1.55
2023-01-10T23:08:09.459Z,1.73
2023-01-10T23:13:11.033Z,3.33
2023-01-10T23:18:12.554Z,2.10
2023-01-10T23:23:14.219Z,4.45
2023-01-10T23:28:15.710Z,3.22
2023-01-10T23:33:17.623Z,3.47
2023-01-10T23:38:19.380Z,3.00
2023-01-10T23:43:23.280Z,4.13
2023-01-10T23:48:25.252Z,3.95
2023-01-10T23:53:27.081Z,4.60
2023-01-10T23:58:28.615Z,3.42
